Time;durP1;ratioP1;P1;durP2;ratioP2;P2;SDS_P1;SDS_P2;PMS_P1;PMS_P2;Temp;Humidity;BMP_temperature;BMP_pressure;BME280_temperature;BME280_humidity;BME280_pressure;Samples;Min_cycle;Max_cycle;Signal;HPM_P1;HPM_P2
2021/12/08 00:01:02;;;;;;;3.10;2.40;;;;;;;2.09;71.89;151902.72;5059471;28;20549;-75
2021/12/08 00:03:38;;;;;;;3.80;2.20;;;;;;;2.06;73.45;151896.28;5053622;28;20438;-75
2021/12/08 00:06:14;;;;;;;1.93;1.73;;;;;;;1.98;72.56;151875.72;5057015;28;20454;-75
2021/12/08 00:09:02;;;;;;;2.33;1.83;;;;;;;2.07;72.55;151898.81;5056795;28;20979;-75
2021/12/08 00:14:32;;;;;;;3.03;2.10;;;;;;;2.08;74.07;151901.41;5070905;28;20845;-75
2021/12/08 00:17:08;;;;;;;4.97;1.90;;;;;;;2.10;73.32;151906.53;5099419;28;20443;-75
2021/12/08 00:19:44;;;;;;;3.80;2.07;;;;;;;2.21;73.88;151934.84;5076235;28;20512;-75
2021/12/08 00:22:19;;;;;;;2.23;1.77;;;;;;;2.20;73.73;151930.94;5106118;28;20438;-75
2021/12/08 00:24:55;;;;;;;2.17;1.97;;;;;;;2.12;73.74;151911.69;5071723;28;20516;-75
2021/12/08 00:27:31;;;;;;;2.63;1.80;;;;;;;2.08;74.45;151900.13;5056681;28;20539;-75
2021/12/08 00:30:09;;;;;;;2.20;2.00;;;;;;;2.00;75.22;151880.84;5067931;28;20494;-76
2021/12/08 00:32:44;;;;;;;2.67;1.90;;;;;;;2.04;74.34;151891.09;5086113;28;20456;-75
2021/12/08 00:35:20;;;;;;;3.13;2.20;;;;;;;2.10;74.35;151906.53;5065785;28;20461;-75
2021/12/08 00:37:56;;;;;;;3.17;2.20;;;;;;;2.06;75.46;151896.28;5071967;28;20446;-75
2021/12/08 00:40:32;;;;;;;2.77;2.33;;;;;;;2.17;76.00;151924.53;5084729;28;20443;-75
2021/12/08 00:43:08;;;;;;;2.70;2.03;;;;;;;2.06;77.92;151896.28;5056454;28;20534;-75
2021/12/08 00:45:45;;;;;;;4.13;2.80;;;;;;;1.99;78.50;151878.25;5067896;28;20465;-76
2021/12/08 00:48:21;;;;;;;3.50;2.37;;;;;;;1.96;80.58;151870.53;5053956;28;20446;-76
2021/12/08 00:50:57;;;;;;;4.20;2.07;;;;;;;1.99;82.18;151876.97;5070633;28;20518;-76
2021/12/08 00:53:33;;;;;;;3.40;1.87;;;;;;;1.95;83.62;151868.00;5071548;28;20503;-76
2021/12/08 00:56:08;;;;;;;3.73;2.63;;;;;;;1.91;83.95;151857.69;5055994;28;20540;-76
2021/12/08 00:58:44;;;;;;;2.20;2.00;;;;;;;1.87;85.36;151846.13;5056581;28;20868;-75
2021/12/08 01:01:22;;;;;;;3.40;2.30;;;;;;;1.87;85.40;151847.41;5104925;28;20484;-75
2021/12/08 01:03:58;;;;;;;3.90;2.60;;;;;;;1.82;86.85;151834.56;5060471;28;20432;-76
2021/12/08 01:06:33;;;;;;;2.80;2.57;;;;;;;1.86;87.63;151844.84;5055010;28;20891;-76
2021/12/08 01:09:09;;;;;;;3.60;2.73;;;;;;;1.77;91.08;151821.72;5039948;28;20457;-76
2021/12/08 01:11:46;;;;;;;5.70;2.53;;;;;;;1.69;90.93;151802.47;5104895;28;20816;-76
2021/12/08 01:14:21;;;;;;;3.23;2.50;;;;;;;1.64;93.15;151788.31;5088899;28;20995;-76
2021/12/08 01:16:58;;;;;;;3.30;2.60;;;;;;;1.60;94.38;151778.00;5055476;28;20474;-76
2021/12/08 01:19:34;;;;;;;4.53;2.33;;;;;;;1.60;95.07;151778.00;5076536;28;20529;-76
2021/12/08 01:22:10;;;;;;;4.27;2.60;;;;;;;1.58;96.56;151772.88;5099769;28;20993;-76
2021/12/08 01:24:45;;;;;;;4.87;2.90;;;;;;;1.60;97.14;151778.00;5057121;28;20561;-76
2021/12/08 01:27:21;;;;;;;3.30;2.60;;;;;;;1.61;97.44;151780.59;5052213;28;20910;-76
2021/12/08 01:29:56;;;;;;;3.53;2.50;;;;;;;1.61;98.01;151780.59;5069359;28;20843;-76
2021/12/08 01:32:34;;;;;;;3.00;2.43;;;;;;;1.59;98.76;151776.72;5080102;28;20446;-76
2021/12/08 01:35:11;;;;;;;4.93;2.87;;;;;;;1.59;100.00;151775.47;5099650;28;20524;-76
2021/12/08 01:37:46;;;;;;;2.30;2.10;;;;;;;1.58;100.00;151774.19;5104849;28;20449;-76
2021/12/08 01:40:22;;;;;;;4.30;2.63;;;;;;;1.57;100.00;151771.59;5071169;28;20430;-76
2021/12/08 01:43:00;;;;;;;4.63;2.47;;;;;;;1.58;100.00;151772.88;5057274;28;20805;-75
2021/12/08 01:48:34;;;;;;;4.10;2.30;;;;;;;1.58;100.00;151772.88;5090102;28;20521;-76
2021/12/08 01:51:25;;;;;;;4.00;2.70;;;;;;;1.57;100.00;151770.28;5084018;28;20476;-76
2021/12/08 01:54:02;;;;;;;3.33;2.63;;;;;;;1.60;100.00;151778.00;5053399;28;20485;-76
2021/12/08 01:56:38;;;;;;;2.50;2.00;;;;;;;1.57;100.00;151770.28;5102474;28;20505;-76
2021/12/08 01:59:13;;;;;;;2.20;1.40;;;;;;;1.62;100.00;151783.13;5052261;28;20444;-76
2021/12/08 02:01:48;;;;;;;3.90;2.37;;;;;;;1.62;100.00;151783.13;5088519;28;20773;-76
2021/12/08 02:04:26;;;;;;;3.30;1.97;;;;;;;1.63;100.00;151785.72;5088475;28;20481;-76
2021/12/08 02:07:01;;;;;;;3.37;1.70;;;;;;;1.62;100.00;151784.44;5067719;28;20478;-76
2021/12/08 02:09:37;;;;;;;3.23;1.83;;;;;;;1.64;100.00;151788.31;5058181;28;20872;-76
2021/12/08 02:12:13;;;;;;;2.80;1.87;;;;;;;1.65;100.00;151790.84;5054991;28;20450;-76
2021/12/08 02:14:49;;;;;;;2.67;2.10;;;;;;;1.67;100.00;151797.28;5060670;28;20434;-76
2021/12/08 02:17:24;;;;;;;3.60;1.97;;;;;;;1.67;100.00;151797.28;5069825;28;20442;-76
2021/12/08 02:20:02;;;;;;;2.67;2.07;;;;;;;1.65;100.00;151790.84;5104013;28;20442;-76
2021/12/08 02:22:39;;;;;;;2.50;1.90;;;;;;;1.61;100.00;151781.91;5105067;28;20451;-76
2021/12/08 02:25:22;;;;;;;2.30;1.90;;;;;;;1.69;100.00;151801.16;5102400;28;20466;-76
2021/12/08 02:28:00;;;;;;;3.37;2.10;;;;;;;1.68;100.00;151798.56;5089304;28;20450;-76
2021/12/08 02:30:42;;;;;;;2.80;1.83;;;;;;;1.66;100.00;151793.44;5058323;28;20474;-76
2021/12/08 02:47:54;;;;;;;3.43;2.17;;;;;;;1.63;100.00;151785.72;5084168;28;20476;-76
2021/12/08 02:50:32;;;;;;;3.50;2.00;;;;;;;1.65;100.00;151790.84;5055863;28;20467;-76
2021/12/08 02:53:09;;;;;;;2.83;1.83;;;;;;;1.65;100.00;151790.84;5066735;28;20530;-76
2021/12/08 02:55:46;;;;;;;2.73;2.30;;;;;;;1.66;100.00;151794.75;5066782;28;20449;-76
2021/12/08 02:58:22;;;;;;;2.90;2.07;;;;;;;1.66;100.00;151793.44;5049290;28;20466;-76
2021/12/08 03:01:00;;;;;;;4.00;2.30;;;;;;;1.67;100.00;151797.28;5069587;28;20444;-76
2021/12/08 03:03:36;;;;;;;3.40;2.30;;;;;;;1.67;100.00;151795.97;5069987;28;20441;-76
2021/12/08 03:06:12;;;;;;;4.30;2.10;;;;;;;1.70;100.00;151803.69;5050094;28;20546;-76
2021/12/08 03:08:48;;;;;;;2.53;2.13;;;;;;;1.69;100.00;151802.47;5054912;28;20518;-76
2021/12/08 03:11:25;;;;;;;2.87;2.30;;;;;;;1.72;100.00;151810.13;5074329;28;20474;-76
2021/12/08 03:14:06;;;;;;;2.63;2.43;;;;;;;1.70;100.00;151803.69;5074568;28;20418;-76
2021/12/08 03:16:43;;;;;;;3.77;2.30;;;;;;;1.75;100.00;151816.56;5061214;28;20942;-76
2021/12/08 03:19:21;;;;;;;2.57;2.20;;;;;;;1.74;100.00;151814.00;5075099;28;20443;-76
2021/12/08 03:21:57;;;;;;;2.40;2.13;;;;;;;1.76;100.00;151819.13;5106963;28;20445;-76
2021/12/08 03:24:36;;;;;;;3.47;2.50;;;;;;;1.78;100.00;151824.25;5105597;28;20442;-76
2021/12/08 03:27:16;;;;;;;5.50;2.60;;;;;;;1.78;100.00;151824.25;5107042;28;20447;-76
2021/12/08 03:29:55;;;;;;;3.30;2.63;;;;;;;1.82;100.00;151834.56;5062097;28;20465;-75
2021/12/08 03:32:35;;;;;;;3.00;2.50;;;;;;;1.79;100.00;151828.16;5073076;28;20528;-76
2021/12/08 03:35:14;;;;;;;4.50;2.60;;;;;;;1.79;100.00;151828.16;5072267;28;20941;-76
2021/12/08 03:37:49;;;;;;;3.90;2.50;;;;;;;1.76;100.00;151819.13;5056106;28;20446;-76
2021/12/08 03:40:28;;;;;;;4.63;2.53;;;;;;;1.79;100.00;151826.84;5083952;28;20498;-75
2021/12/08 03:43:04;;;;;;;2.50;2.10;;;;;;;1.80;100.00;151829.44;5077870;28;20437;-76
2021/12/08 03:45:47;;;;;;;3.73;2.80;;;;;;;1.80;100.00;151829.44;5069208;28;20438;-76
2021/12/08 03:48:27;;;;;;;3.80;2.73;;;;;;;1.80;100.00;151830.69;5090994;28;20431;-76
2021/12/08 03:51:02;;;;;;;2.80;2.40;;;;;;;1.81;100.00;151832.00;5056832;28;20478;-76
2021/12/08 03:53:38;;;;;;;3.23;2.93;;;;;;;1.78;100.00;151824.25;5063204;28;20538;-76
2021/12/08 03:56:14;;;;;;;3.83;3.17;;;;;;;1.79;100.00;151826.84;5074616;28;20444;-76
2021/12/08 03:58:51;;;;;;;6.57;3.07;;;;;;;1.77;100.00;151822.97;5078982;28;20453;-76
2021/12/08 04:01:26;;;;;;;3.37;2.33;;;;;;;1.80;100.00;151829.44;5089204;28;20469;-76
2021/12/08 04:04:06;;;;;;;4.67;2.97;;;;;;;1.82;100.00;151834.56;5056937;28;20444;-76
2021/12/08 04:06:47;;;;;;;4.40;3.03;;;;;;;1.85;100.00;151842.28;5056850;28;20525;-76
2021/12/08 04:09:30;;;;;;;6.40;2.70;;;;;;;1.89;100.00;151852.56;5089834;28;20443;-76
2021/12/08 04:12:06;;;;;;;5.07;3.03;;;;;;;1.94;100.00;151865.41;5098162;28;20551;-76
2021/12/08 04:14:46;;;;;;;4.20;3.00;;;;;;;1.96;100.00;151870.53;5058184;28;20570;-76
2021/12/08 04:17:25;;;;;;;6.00;3.10;;;;;;;1.98;100.00;151875.72;5069351;28;20593;-76
2021/12/08 04:20:05;;;;;;;4.03;3.60;;;;;;;2.02;100.00;151885.97;5078461;28;20457;-77
2021/12/08 04:22:45;;;;;;;4.17;3.53;;;;;;;2.01;100.00;151882.13;5086312;28;20439;-76
2021/12/08 04:25:23;;;;;;;7.53;4.07;;;;;;;2.00;100.00;151879.56;5099289;28;20442;-76
2021/12/08 04:28:00;;;;;;;5.60;3.90;;;;;;;2.00;100.00;151880.84;5070099;28;20530;-76
2021/12/08 04:30:40;;;;;;;5.40;3.37;;;;;;;2.00;100.00;151880.84;5070555;28;20514;-76
2021/12/08 04:33:16;;;;;;;4.00;3.10;;;;;;;2.03;100.00;151888.56;5073468;28;20537;-76
2021/12/08 04:35:53;;;;;;;5.03;3.40;;;;;;;2.02;100.00;151884.69;5084732;28;20435;-76
2021/12/08 04:38:36;;;;;;;4.70;3.10;;;;;;;2.01;100.00;151883.44;5085162;28;20483;-76
2021/12/08 04:41:17;;;;;;;5.20;3.80;;;;;;;2.07;100.00;151898.81;5071009;28;20449;-76
2021/12/08 04:44:02;;;;;;;5.37;4.20;;;;;;;2.08;100.00;151901.41;5050825;28;20443;-76
2021/12/08 04:46:56;;;;;;;5.20;4.03;;;;;;;2.09;100.00;151903.94;5053497;28;20440;-75
2021/12/08 04:50:07;;;;;;;6.10;3.67;;;;;;;2.12;100.00;151911.69;5036765;28;20439;-76
2021/12/08 04:52:48;;;;;;;4.00;3.40;;;;;;;2.17;100.00;151924.53;5068362;28;20472;-76
2021/12/08 05:01:44;;;;;;;4.40;3.90;;;;;;;2.24;100.00;151942.56;5004012;28;20541;-76
2021/12/08 05:04:38;;;;;;;5.30;3.60;;;;;;;2.29;100.00;151955.41;4979445;28;20488;-76
2021/12/08 05:07:29;;;;;;;5.73;4.17;;;;;;;2.30;100.00;151957.94;5042808;28;20789;-76
2021/12/08 05:10:09;;;;;;;5.97;4.00;;;;;;;2.29;100.00;151955.41;5052298;28;20753;-76
2021/12/08 05:12:46;;;;;;;5.10;4.00;;;;;;;2.29;100.00;151955.41;5052563;28;20432;-76
2021/12/08 05:15:28;;;;;;;6.83;4.13;;;;;;;2.31;100.00;151959.25;5036026;28;20447;-76
2021/12/08 05:18:11;;;;;;;5.20;3.93;;;;;;;2.31;100.00;151960.53;5068132;28;20457;-76
2021/12/08 05:20:52;;;;;;;5.30;4.20;;;;;;;2.37;100.00;151974.69;5074519;28;20467;-76
2021/12/08 05:23:32;;;;;;;6.33;3.67;;;;;;;2.37;100.00;151976.00;5093350;28;20452;-76
2021/12/08 05:26:12;;;;;;;5.63;3.90;;;;;;;2.35;100.00;151970.84;5071143;28;20763;-76
2021/12/08 05:28:49;;;;;;;4.03;3.60;;;;;;;2.36;100.00;151972.09;5089293;28;20808;-76
2021/12/08 05:31:28;;;;;;;4.50;3.70;;;;;;;2.33;100.00;151965.66;5073266;28;20488;-76
2021/12/08 05:34:04;;;;;;;5.60;3.93;;;;;;;2.36;100.00;151973.41;5035341;28;20440;-76
2021/12/08 05:36:41;;;;;;;4.63;4.00;;;;;;;2.36;100.00;151973.41;5050724;28;20445;-76
2021/12/08 05:39:20;;;;;;;4.97;4.13;;;;;;;2.36;100.00;151973.41;5051484;28;20417;-75
2021/12/08 05:42:00;;;;;;;5.97;4.23;;;;;;;2.35;100.00;151970.84;5064254;28;20437;-76
2021/12/08 05:44:36;;;;;;;5.40;4.20;;;;;;;2.37;100.00;151974.69;5067249;28;20463;-76
2021/12/08 05:47:14;;;;;;;5.03;4.50;;;;;;;2.35;100.00;151970.84;5084153;28;20456;-75
2021/12/08 05:49:51;;;;;;;6.53;5.03;;;;;;;2.38;100.00;151978.53;5069972;28;20439;-76
2021/12/08 05:52:28;;;;;;;5.23;4.67;;;;;;;2.40;100.00;151983.72;5071053;28;20478;-76
2021/12/08 05:55:05;;;;;;;4.97;4.03;;;;;;;2.42;100.00;151987.53;5103489;28;20446;-76
2021/12/08 05:57:43;;;;;;;6.63;5.07;;;;;;;2.43;100.00;151990.13;5093519;28;20489;-76
2021/12/08 06:00:23;;;;;;;6.10;5.17;;;;;;;2.46;100.00;151999.09;5091085;28;20854;-76
2021/12/08 06:03:04;;;;;;;6.80;5.07;;;;;;;2.48;100.00;152003.00;5050908;28;20815;-75
2021/12/08 06:05:44;;;;;;;6.27;4.93;;;;;;;2.55;100.00;152019.69;5048209;28;20441;-75
2021/12/08 06:08:24;;;;;;;5.20;4.50;;;;;;;2.57;100.00;152024.88;5070655;28;20441;-75
2021/12/08 06:11:08;;;;;;;5.43;4.50;;;;;;;2.57;100.00;152026.13;5067698;28;20484;-76
2021/12/08 06:13:47;;;;;;;5.87;4.67;;;;;;;2.59;100.00;152030.00;5050874;28;20513;-74
2021/12/08 06:16:24;;;;;;;6.70;5.20;;;;;;;2.59;100.00;152030.00;5066538;28;20973;-75
2021/12/08 06:19:02;;;;;;;7.30;5.53;;;;;;;2.65;100.00;152045.44;5066062;28;20493;-75
2021/12/08 06:21:39;;;;;;;6.73;5.17;;;;;;;2.63;100.00;152041.56;5068097;28;20558;-75
2021/12/08 06:24:18;;;;;;;5.67;4.60;;;;;;;2.58;100.00;152027.41;5054474;28;20445;-75
2021/12/08 06:26:54;;;;;;;8.00;5.00;;;;;;;2.59;100.00;152030.00;5095245;28;20449;-75
2021/12/08 06:29:30;;;;;;;6.70;5.50;;;;;;;2.63;100.00;152040.25;5053711;28;20440;-75
2021/12/08 06:32:09;;;;;;;5.70;5.10;;;;;;;2.66;100.00;152048.00;5084166;28;20493;-75
2021/12/08 06:34:49;;;;;;;5.80;4.90;;;;;;;2.73;100.00;152065.97;5091320;28;20433;-75
2021/12/08 06:37:28;;;;;;;6.07;4.97;;;;;;;2.73;100.00;152065.97;5087767;28;20446;-76
2021/12/08 06:40:11;;;;;;;6.07;4.90;;;;;;;2.72;100.00;152063.44;5054240;28;20946;-75
2021/12/08 06:42:49;;;;;;;6.17;5.20;;;;;;;2.73;100.00;152067.28;5071683;28;20447;-76
2021/12/08 06:45:30;;;;;;;8.30;6.20;;;;;;;2.73;100.00;152065.97;5065492;28;20944;-76
2021/12/08 06:48:09;;;;;;;7.53;6.07;;;;;;;2.75;100.00;152071.16;5066501;28;20544;-75
2021/12/08 06:50:48;;;;;;;7.23;5.97;;;;;;;2.75;100.00;152071.16;5073086;28;20499;-75
2021/12/08 06:53:25;;;;;;;6.10;5.50;;;;;;;2.71;100.00;152062.16;5060529;28;20543;-75
2021/12/08 06:56:06;;;;;;;8.67;6.40;;;;;;;2.73;100.00;152065.97;5057867;28;20816;-75
2021/12/08 06:58:46;;;;;;;8.07;6.73;;;;;;;2.74;100.00;152069.88;5055074;28;20477;-75
2021/12/08 07:01:37;;;;;;;8.40;6.03;;;;;;;2.72;100.00;152063.44;5105029;28;20439;-76
2021/12/08 07:04:28;;;;;;;6.47;5.77;;;;;;;2.78;100.00;152080.13;5077405;28;20980;-76
2021/12/08 07:07:09;;;;;;;8.37;5.90;;;;;;;2.80;100.00;152085.31;5062838;28;20857;-75
2021/12/08 07:09:49;;;;;;;5.60;5.10;;;;;;;2.81;100.00;152086.56;5100604;28;20766;-75
2021/12/08 07:12:29;;;;;;;8.67;6.30;;;;;;;2.80;100.00;152084.03;5066893;28;20987;-75
2021/12/08 07:15:08;;;;;;;7.73;6.03;;;;;;;2.77;100.00;152077.59;5061802;28;20842;-74
2021/12/08 07:17:49;;;;;;;7.80;6.40;;;;;;;2.75;100.00;152072.47;5065329;28;20551;-75
2021/12/08 07:20:40;;;;;;;6.30;5.33;;;;;;;2.71;100.00;152062.16;5094835;28;20444;-75
2021/12/08 07:23:19;;;;;;;7.37;6.30;;;;;;;2.72;100.00;152064.75;5052743;28;20442;-75
2021/12/08 07:25:57;;;;;;;6.80;6.00;;;;;;;2.74;100.00;152068.56;5097409;28;20945;-75
2021/12/08 07:28:34;;;;;;;8.23;5.73;;;;;;;2.73;100.00;152065.97;5060223;28;20493;-74
2021/12/08 07:31:14;;;;;;;5.80;5.00;;;;;;;2.68;100.00;152054.41;5062826;28;20476;-75
2021/12/08 07:33:50;;;;;;;8.37;6.03;;;;;;;2.68;100.00;152053.13;5095917;28;20851;-76
2021/12/08 07:36:25;;;;;;;6.20;5.60;;;;;;;2.70;100.00;152059.56;5072304;28;20444;-75
2021/12/08 07:39:01;;;;;;;9.33;6.40;;;;;;;2.66;100.00;152048.00;5099460;27;20440;-76
2021/12/08 07:41:41;;;;;;;5.83;5.23;;;;;;;2.69;100.00;152055.72;5047175;28;20935;-74
2021/12/08 07:44:18;;;;;;;7.90;6.10;;;;;;;2.69;100.00;152055.72;5056050;28;20489;-75
2021/12/08 07:46:57;;;;;;;8.77;6.00;;;;;;;2.69;100.00;152055.72;5051479;28;20546;-75
2021/12/08 07:49:36;;;;;;;8.97;6.80;;;;;;;2.72;100.00;152063.44;5053670;28;20547;-75
2021/12/08 07:52:14;;;;;;;8.77;6.13;;;;;;;2.73;100.00;152067.28;5068448;28;20518;-74
2021/12/08 07:54:51;;;;;;;6.73;5.90;;;;;;;2.74;100.00;152069.88;5096354;28;20458;-75
2021/12/08 07:57:30;;;;;;;7.23;5.60;;;;;;;2.78;100.00;152078.88;5050866;28;20483;-75
2021/12/08 08:00:12;;;;;;;6.20;5.57;;;;;;;2.78;100.00;152080.13;5070263;28;20812;-74
2021/12/08 08:02:50;;;;;;;6.80;5.27;;;;;;;2.78;100.00;152078.88;5102173;28;20440;-75
2021/12/08 08:05:28;;;;;;;7.50;5.77;;;;;;;2.80;100.00;152085.31;5069195;28;20448;-76
2021/12/08 08:08:07;;;;;;;7.80;6.07;;;;;;;2.78;100.00;152078.88;5083156;28;20945;-75
2021/12/08 08:10:47;;;;;;;8.50;5.80;;;;;;;2.84;100.00;152094.28;5078576;28;20947;-75
2021/12/08 08:13:24;;;;;;;6.73;5.73;;;;;;;2.82;100.00;152090.44;5053785;28;20647;-75
2021/12/08 08:16:05;;;;;;;6.93;5.40;;;;;;;2.83;100.00;152093.00;5082392;28;20793;-75
2021/12/08 08:18:44;;;;;;;6.43;5.67;;;;;;;2.85;100.00;152098.19;5105744;28;20930;-75
2021/12/08 08:21:24;;;;;;;7.40;5.57;;;;;;;2.86;100.00;152099.47;5071533;28;20450;-75
2021/12/08 08:24:00;;;;;;;8.13;6.30;;;;;;;2.85;100.00;152096.88;5046337;28;20861;-75
2021/12/08 08:26:37;;;;;;;7.10;6.40;;;;;;;2.84;100.00;152094.28;5098977;28;20619;-74
2021/12/08 08:29:14;;;;;;;8.33;7.00;;;;;;;2.85;100.00;152096.88;5063685;28;20802;-74
2021/12/08 08:31:59;;;;;;;8.33;6.53;;;;;;;2.85;100.00;152098.19;5074879;28;20475;-74
2021/12/08 08:34:38;;;;;;;8.00;6.73;;;;;;;2.90;100.00;152111.03;5066718;28;20801;-74
2021/12/08 08:37:15;;;;;;;7.43;6.50;;;;;;;2.93;100.00;152117.47;5038201;28;20450;-75
2021/12/08 08:39:53;;;;;;;10.33;7.17;;;;;;;2.93;100.00;152117.47;5075697;28;20481;-75
2021/12/08 08:42:32;;;;;;;14.70;7.00;;;;;;;2.93;100.00;152117.47;5048596;28;20957;-76
2021/12/08 08:45:12;;;;;;;9.27;7.87;;;;;;;2.91;100.00;152112.34;5060873;28;20789;-75
2021/12/08 08:47:53;;;;;;;9.40;7.13;;;;;;;2.92;100.00;152114.88;5090553;28;20779;-75
2021/12/08 08:50:32;;;;;;;9.13;7.20;;;;;;;2.89;100.00;152108.44;5080282;28;20868;-74
2021/12/08 08:53:08;;;;;;;10.20;7.10;;;;;;;2.93;100.00;152117.47;5103040;28;21225;-74
2021/12/08 08:55:48;;;;;;;7.10;6.40;;;;;;;2.96;100.00;152125.19;5059141;28;20457;-75
2021/12/08 08:58:26;;;;;;;8.87;7.00;;;;;;;3.00;100.00;152135.47;5061536;28;20452;-74
2021/12/08 09:01:05;;;;;;;9.27;7.20;;;;;;;2.97;100.00;152127.75;5054899;28;20461;-75
2021/12/08 09:03:46;;;;;;;9.40;8.03;;;;;;;3.00;100.00;152136.75;5056929;28;20449;-74
2021/12/08 09:06:25;;;;;;;9.70;7.67;;;;;;;3.01;100.00;152138.06;5060422;28;20457;-74
2021/12/08 09:09:02;;;;;;;10.47;7.77;;;;;;;3.00;100.00;152135.47;5037109;28;20535;-74
2021/12/08 09:11:41;;;;;;;8.87;7.00;;;;;;;3.02;100.00;152141.91;5070096;28;20555;-74
2021/12/08 09:14:20;;;;;;;8.73;7.13;;;;;;;3.02;100.00;152140.59;5086944;28;20424;-75
2021/12/08 09:16:59;;;;;;;8.83;7.43;;;;;;;3.02;100.00;152141.91;5103681;28;20785;-75
2021/12/08 09:19:42;;;;;;;9.73;8.00;;;;;;;3.08;100.00;152156.06;5059689;28;20864;-76
2021/12/08 09:22:22;;;;;;;10.17;8.03;;;;;;;3.06;100.00;152150.91;5088624;28;20434;-75
2021/12/08 09:25:02;;;;;;;11.50;7.27;;;;;;;3.05;100.00;152148.31;5091849;28;20453;-75
2021/12/08 09:27:40;;;;;;;8.80;7.90;;;;;;;3.04;100.00;152145.78;5040112;28;20445;-75
2021/12/08 09:30:20;;;;;;;9.90;8.30;;;;;;;3.08;100.00;152156.06;5088564;28;20845;-75
2021/12/08 09:32:59;;;;;;;10.27;7.30;;;;;;;3.09;100.00;152158.66;5088976;28;20477;-75
2021/12/08 09:35:41;;;;;;;7.70;6.87;;;;;;;3.13;100.00;152167.63;5068167;28;20441;-75
2021/12/08 09:38:21;;;;;;;8.57;6.50;;;;;;;3.10;100.00;152161.19;5057079;28;20453;-75
2021/12/08 09:41:00;;;;;;;9.20;6.97;;;;;;;3.13;100.00;152168.91;5067685;28;20441;-74
2021/12/08 09:43:41;;;;;;;8.20;6.87;;;;;;;3.11;100.00;152163.78;5044354;28;20442;-74
2021/12/08 09:46:19;;;;;;;7.73;6.30;;;;;;;3.11;100.00;152162.47;5089554;28;20967;-75
2021/12/08 09:48:55;;;;;;;7.60;5.73;;;;;;;3.15;100.00;152174.03;5090831;28;20446;-74
2021/12/08 09:51:33;;;;;;;7.33;5.80;;;;;;;3.19;100.00;152184.38;5050302;28;20472;-75
2021/12/08 09:54:09;;;;;;;7.13;5.50;;;;;;;3.19;100.00;152184.38;5085562;28;20445;-75
2021/12/08 09:56:46;;;;;;;6.10;5.47;;;;;;;3.20;100.00;152185.66;5062145;28;20428;-75
2021/12/08 09:59:23;;;;;;;6.57;5.90;;;;;;;3.22;100.00;152190.81;5091480;28;20445;-74
2021/12/08 10:02:02;;;;;;;6.30;4.80;;;;;;;3.25;100.00;152199.81;5037197;28;20493;-75
2021/12/08 10:04:38;;;;;;;6.97;5.70;;;;;;;3.29;100.00;152208.81;5062687;28;20955;-75
2021/12/08 10:07:15;;;;;;;7.53;5.57;;;;;;;3.27;100.00;152204.97;5083634;28;20564;-75
2021/12/08 10:09:51;;;;;;;6.63;5.10;;;;;;;3.32;100.00;152217.81;5057204;28;20447;-74
2021/12/08 10:12:26;;;;;;;11.43;6.00;;;;;;;3.37;100.00;152229.41;5082874;28;20580;-75
2021/12/08 10:15:02;;;;;;;6.77;5.30;;;;;;;3.39;100.00;152234.59;5052445;28;20441;-75
2021/12/08 10:17:37;;;;;;;5.67;5.17;;;;;;;3.40;100.00;152238.41;5084118;28;20452;-75
2021/12/08 10:20:17;;;;;;;8.97;6.13;;;;;;;3.41;100.00;152241.00;5086954;28;20852;-75
2021/12/08 10:23:13;;;;;;;5.83;4.60;;;;;;;3.43;100.00;152246.16;5086724;28;20459;-75
2021/12/08 10:25:51;;;;;;;5.23;4.70;;;;;;;3.44;100.00;152248.69;5056918;28;20445;-75
2021/12/08 10:28:29;;;;;;;7.10;5.60;;;;;;;3.44;100.00;152247.44;5065438;28;20452;-75
2021/12/08 10:31:07;;;;;;;7.10;5.27;;;;;;;3.47;100.00;152255.13;5070734;28;20478;-76
2021/12/08 10:33:56;;;;;;;6.53;4.73;;;;;;;3.48;100.00;152257.72;5057464;28;20505;-74
2021/12/08 10:36:45;;;;;;;5.90;4.87;;;;;;;3.47;100.00;152256.44;5055588;28;20545;-75
2021/12/08 10:39:28;;;;;;;8.00;5.47;;;;;;;3.49;100.00;152261.59;5048646;28;20559;-75
2021/12/08 10:42:10;;;;;;;6.00;4.60;;;;;;;3.55;100.00;152277.03;5052757;28;20449;-75
2021/12/08 10:44:51;;;;;;;7.23;4.63;;;;;;;3.56;100.00;152278.31;5062613;28;20453;-75
2021/12/08 10:47:29;;;;;;;6.77;5.40;;;;;;;3.57;100.00;152280.91;5060687;28;20445;-75
2021/12/08 10:56:02;;;;;;;6.63;4.87;;;;;;;3.58;100.00;152283.47;5069945;28;20422;-75
2021/12/08 10:58:40;;;;;;;6.87;4.87;;;;;;;3.63;100.00;152296.31;5105894;27;20440;-74
2021/12/08 11:01:18;;;;;;;7.67;4.80;;;;;;;3.62;100.00;152295.06;5064677;28;21029;-75
2021/12/08 11:03:59;;;;;;;5.70;4.77;;;;;;;3.61;100.00;152292.47;5084594;28;20461;-75
2021/12/08 11:06:36;;;;;;;5.80;4.47;;;;;;;3.62;100.00;152295.06;5068587;28;20446;-75
2021/12/08 11:09:14;;;;;;;5.37;4.67;;;;;;;3.68;100.00;152309.19;5069991;28;20436;-75
2021/12/08 11:11:52;;;;;;;5.83;5.23;;;;;;;3.72;100.00;152318.22;5099952;28;20466;-75
2021/12/08 11:14:28;;;;;;;6.13;4.97;;;;;;;3.75;100.00;152325.94;5053203;28;20448;-74
2021/12/08 11:17:04;;;;;;;5.80;4.60;;;;;;;3.76;100.00;152329.78;5043373;28;20443;-74
2021/12/08 11:19:39;;;;;;;5.53;4.77;;;;;;;3.78;100.00;152333.69;5053258;28;20541;-75
2021/12/08 11:22:16;;;;;;;4.73;4.13;;;;;;;3.80;100.00;152338.81;5060344;28;20817;-75
2021/12/08 11:24:57;;;;;;;7.00;5.40;;;;;;;3.83;100.00;152346.56;5056376;28;20477;-75
2021/12/08 11:27:34;;;;;;;6.33;4.50;;;;;;;3.84;100.00;152349.16;5056310;28;20486;-74
2021/12/08 11:30:14;;;;;;;5.03;4.53;;;;;;;3.88;100.00;152359.44;5068440;28;20468;-74
2021/12/08 11:32:49;;;;;;;6.23;4.83;;;;;;;3.91;100.00;152367.16;5041292;28;20934;-74
2021/12/08 11:35:25;;;;;;;7.27;4.93;;;;;;;3.92;100.00;152369.75;5062781;28;20458;-74
2021/12/08 11:38:01;;;;;;;6.57;5.10;;;;;;;3.91;100.00;152368.47;5091316;28;20503;-75
2021/12/08 11:40:37;;;;;;;5.13;4.53;;;;;;;3.88;100.00;152360.72;5057035;28;20530;-75
2021/12/08 11:43:14;;;;;;;5.23;4.40;;;;;;;3.92;100.00;152369.75;5057038;28;20442;-75
2021/12/08 11:45:50;;;;;;;6.67;4.70;;;;;;;3.93;100.00;152373.59;5094627;28;20464;-75
2021/12/08 11:48:27;;;;;;;5.50;5.00;;;;;;;3.97;100.00;152382.63;5070579;28;20445;-75
2021/12/08 11:51:09;;;;;;;6.00;4.43;;;;;;;3.97;100.00;152382.63;5062551;28;20522;-75
2021/12/08 11:53:44;;;;;;;5.13;4.57;;;;;;;3.97;100.00;152382.63;5037789;28;20500;-75
2021/12/08 11:56:36;;;;;;;4.70;4.30;;;;;;;3.96;100.00;152381.31;5068857;28;20450;-75
2021/12/08 11:59:14;;;;;;;4.40;4.00;;;;;;;3.94;100.00;152374.88;5074892;28;20482;-74
2021/12/08 12:01:49;;;;;;;5.70;4.70;;;;;;;3.98;100.00;152385.16;5053565;28;20429;-74
2021/12/08 12:04:25;;;;;;;6.60;4.70;;;;;;;4.00;100.00;152391.59;5086165;28;20540;-75
2021/12/08 12:07:00;;;;;;;4.67;4.27;;;;;;;4.00;100.00;152391.59;5071633;28;20529;-74
2021/12/08 12:09:36;;;;;;;6.53;5.00;;;;;;;4.01;100.00;152392.91;5071604;28;20459;-74
2021/12/08 12:12:12;;;;;;;4.67;4.27;;;;;;;3.97;100.00;152382.63;5090730;28;20453;-75
2021/12/08 12:14:49;;;;;;;6.33;4.43;;;;;;;3.97;100.00;152383.88;5057615;28;20450;-75
2021/12/08 12:17:25;;;;;;;4.40;3.70;;;;;;;4.01;100.00;152392.91;5106777;28;20932;-74
2021/12/08 12:20:05;;;;;;;5.93;4.80;;;;;;;4.00;100.00;152390.31;5042374;28;20430;-76
2021/12/08 12:22:46;;;;;;;4.07;3.63;;;;;;;4.01;100.00;152394.19;5071934;28;20442;-75
2021/12/08 12:25:34;;;;;;;4.60;4.20;;;;;;;4.03;100.00;152398.03;5065542;28;20668;-74
2021/12/08 12:28:26;;;;;;;5.40;4.77;;;;;;;4.05;100.00;152403.22;5061812;28;20540;-75
2021/12/08 12:31:13;;;;;;;3.87;3.47;;;;;;;4.06;100.00;152405.78;5084857;28;20487;-75
2021/12/08 12:33:50;;;;;;;4.07;3.67;;;;;;;4.08;100.00;152412.22;5094417;28;20490;-75
2021/12/08 12:36:28;;;;;;;4.13;3.63;;;;;;;4.11;100.00;152418.66;5050734;28;20875;-75
2021/12/08 12:39:12;;;;;;;5.00;4.23;;;;;;;4.11;100.00;152418.66;5082686;28;20437;-74
2021/12/08 12:41:58;;;;;;;6.57;4.70;;;;;;;4.13;100.00;152425.09;5110942;27;20807;-74
2021/12/08 12:44:33;;;;;;;5.63;4.43;;;;;;;4.15;100.00;152428.97;5079759;28;20445;-74
2021/12/08 12:47:24;;;;;;;7.90;5.30;;;;;;;4.18;100.00;152436.72;5073544;28;20433;-74
2021/12/08 12:50:21;;;;;;;6.07;4.87;;;;;;;4.19;100.00;152440.56;5084473;28;20458;-74
2021/12/08 12:52:58;;;;;;;7.43;5.30;;;;;;;4.17;100.00;152434.13;5042085;28;20828;-75